createdAt,value
2022-12-26T00:02:27.713Z,1.58
2022-12-26T00:05:00.648Z,1.50
2022-12-26T00:07:33.438Z,1.60
2022-12-26T00:10:06.911Z,1.83
2022-12-26T00:12:39.579Z,1.50
2022-12-26T00:15:12.277Z,1.60
2022-12-26T00:17:45.107Z,1.75
2022-12-26T00:20:18.910Z,1.42
2022-12-26T00:22:51.586Z,1.70
2022-12-26T00:25:27.715Z,1.73
2022-12-26T00:28:00.323Z,1.70
2022-12-26T00:30:32.867Z,1.80
2022-12-26T00:33:05.479Z,1.90
2022-12-26T00:35:38.067Z,1.70
2022-12-26T00:38:15.621Z,1.70
2022-12-26T00:40:48.283Z,1.90
2022-12-26T00:43:20.867Z,1.77
2022-12-26T00:45:53.496Z,1.70
2022-12-26T00:48:26.348Z,1.67
2022-12-26T00:50:59.748Z,1.60
2022-12-26T00:53:33.431Z,1.83
2022-12-26T00:56:06.700Z,1.48
2022-12-26T00:58:42.208Z,2.00
2022-12-26T01:01:23.097Z,1.80
2022-12-26T01:03:56.725Z,1.95
2022-12-26T01:06:29.325Z,1.80
2022-12-26T01:09:02.078Z,1.70
2022-12-26T01:11:40.705Z,1.67
2022-12-26T01:14:17.806Z,1.40
2022-12-26T01:16:50.376Z,1.90
2022-12-26T01:19:22.903Z,1.85
2022-12-26T01:21:55.554Z,1.70
2022-12-26T01:24:28.202Z,1.77
2022-12-26T01:27:01.084Z,1.73
2022-12-26T01:29:33.636Z,1.73
2022-12-26T01:32:06.714Z,1.90
2022-12-26T01:34:39.394Z,1.70
2022-12-26T01:37:14.148Z,1.60
2022-12-26T01:39:46.681Z,1.70
2022-12-26T01:42:23.658Z,1.88
2022-12-26T01:45:22.912Z,1.63
2022-12-26T01:48:05.762Z,1.63
2022-12-26T01:51:02.587Z,1.63
2022-12-26T01:53:43.773Z,1.80
2022-12-26T01:56:27.459Z,1.58
2022-12-26T01:59:11.592Z,1.73
2022-12-26T02:01:48.802Z,2.10
2022-12-26T02:04:53.104Z,1.65
2022-12-26T02:07:26.770Z,1.60
2022-12-26T02:09:59.582Z,1.77
2022-12-26T02:12:39.031Z,2.08
2022-12-26T02:15:16.612Z,1.70
2022-12-26T02:17:49.127Z,1.52
2022-12-26T02:20:29.400Z,1.77
2022-12-26T02:23:43.762Z,1.35
2022-12-26T02:27:13.326Z,1.52
2022-12-26T02:30:06.012Z,1.40
2022-12-26T02:33:36.743Z,1.33
2022-12-26T02:36:29.905Z,1.60
2022-12-26T02:39:54.328Z,1.60
2022-12-26T02:42:43.388Z,1.40
2022-12-26T02:46:02.250Z,1.50
2022-12-26T02:49:05.071Z,1.58
2022-12-26T02:52:37.387Z,1.63
2022-12-26T02:55:40.231Z,1.30
2022-12-26T02:58:48.605Z,1.30
2022-12-26T03:01:52.834Z,1.52
2022-12-26T03:04:50.765Z,1.30
2022-12-26T03:07:53.978Z,1.45
2022-12-26T03:10:53.641Z,1.23
2022-12-26T03:13:36.912Z,1.45
2022-12-26T03:16:31.335Z,1.30
2022-12-26T03:19:10.687Z,1.30
2022-12-26T03:21:47.432Z,1.15
2022-12-26T03:24:22.406Z,1.38
2022-12-26T03:26:55.168Z,1.10
2022-12-26T03:29:46.552Z,1.30
2022-12-26T03:32:19.211Z,1.40
2022-12-26T03:34:52.193Z,1.23
2022-12-26T03:37:50.198Z,1.20
2022-12-26T03:41:07.556Z,1.30
2022-12-26T03:44:56.626Z,1.17
2022-12-26T03:48:25.917Z,0.93
2022-12-26T03:51:34.161Z,1.45
2022-12-26T03:54:41.186Z,1.10
2022-12-26T03:57:40.228Z,1.00
2022-12-26T04:00:33.894Z,0.90
2022-12-26T04:03:32.499Z,1.10
2022-12-26T04:06:32.651Z,1.00
2022-12-26T04:09:49.063Z,1.00
2022-12-26T04:12:46.131Z,1.00
2022-12-26T04:16:18.822Z,1.05
2022-12-26T04:19:24.818Z,1.05
2022-12-26T04:22:50.505Z,0.90
2022-12-26T04:25:50.538Z,0.90
2022-12-26T04:28:43.077Z,0.98
2022-12-26T04:31:46.701Z,0.80
2022-12-26T04:34:49.474Z,1.00
2022-12-26T04:37:47.489Z,1.00
2022-12-26T04:40:46.007Z,1.08
2022-12-26T04:43:49.125Z,0.90
2022-12-26T04:49:18.975Z,0.80
2022-12-26T04:51:52.020Z,0.90
2022-12-26T04:54:25.778Z,0.80
2022-12-26T04:56:58.434Z,0.85
2022-12-26T04:59:31.495Z,0.80
2022-12-26T05:02:23.096Z,0.80
2022-12-26T05:05:28.181Z,0.90
2022-12-26T05:08:20.188Z,0.70
2022-12-26T05:10:52.716Z,0.77
2022-12-26T05:13:25.222Z,1.10
2022-12-26T05:16:33.336Z,0.90
2022-12-26T05:19:25.607Z,0.70
2022-12-26T05:22:18.728Z,0.75
2022-12-26T05:25:11.129Z,0.90
2022-12-26T05:28:03.368Z,0.80
2022-12-26T05:30:35.975Z,0.85
2022-12-26T05:33:27.434Z,0.80
2022-12-26T05:35:59.995Z,0.73
2022-12-26T05:38:32.691Z,0.90
2022-12-26T05:41:05.752Z,0.95
2022-12-26T05:43:38.419Z,0.80
2022-12-26T05:46:11.090Z,0.65
2022-12-26T05:48:43.657Z,0.73
2022-12-26T05:51:16.367Z,1.02
2022-12-26T05:53:49.330Z,0.70
2022-12-26T05:56:22.410Z,0.70
2022-12-26T05:59:01.144Z,0.70
2022-12-26T06:01:33.853Z,0.70
2022-12-26T06:04:06.620Z,0.85
2022-12-26T06:06:39.289Z,0.77
2022-12-26T06:09:11.851Z,0.60
2022-12-26T06:11:48.686Z,0.60
2022-12-26T06:14:21.876Z,0.70
2022-12-26T06:16:54.478Z,0.60
2022-12-26T06:19:27.031Z,0.70
2022-12-26T06:21:59.627Z,0.85
2022-12-26T06:24:32.364Z,0.68
2022-12-26T06:27:05.019Z,0.70
2022-12-26T06:29:37.769Z,0.65
2022-12-26T06:32:10.359Z,0.60
2022-12-26T06:34:42.952Z,0.70
2022-12-26T06:37:15.594Z,0.70
2022-12-26T06:39:48.197Z,0.80
2022-12-26T06:42:20.756Z,0.70
2022-12-26T06:44:53.478Z,0.60
2022-12-26T06:47:26.126Z,0.70
2022-12-26T06:49:58.882Z,0.60
2022-12-26T06:52:31.529Z,0.60
2022-12-26T06:55:05.158Z,0.60
2022-12-26T06:57:37.818Z,0.60
2022-12-26T07:00:11.495Z,0.50
2022-12-26T07:02:44.294Z,0.40
2022-12-26T07:05:16.947Z,0.55
2022-12-26T07:07:53.026Z,0.40
2022-12-26T07:10:25.692Z,0.60
2022-12-26T07:12:58.188Z,0.60
2022-12-26T07:15:32.007Z,0.60
2022-12-26T07:18:04.683Z,0.40
2022-12-26T07:20:38.284Z,0.63
2022-12-26T07:23:10.988Z,0.57
2022-12-26T07:25:43.675Z,0.50
2022-12-26T07:28:16.448Z,0.40
2022-12-26T07:30:50.447Z,0.40
2022-12-26T07:33:23.981Z,0.60
2022-12-26T07:36:05.294Z,0.50
2022-12-26T07:38:37.945Z,0.57
2022-12-26T07:41:29.071Z,0.47
2022-12-26T07:44:02.226Z,0.40
2022-12-26T07:46:35.041Z,0.60
2022-12-26T07:49:08.479Z,0.45
2022-12-26T07:51:42.777Z,0.60
2022-12-26T07:54:15.554Z,0.45
2022-12-26T07:56:48.156Z,0.40
2022-12-26T07:59:20.738Z,0.50
2022-12-26T08:01:53.553Z,0.43
2022-12-26T08:04:26.572Z,0.50
2022-12-26T08:06:59.409Z,0.40
2022-12-26T08:09:32.031Z,0.40
2022-12-26T08:12:04.833Z,0.60
2022-12-26T08:14:38.007Z,0.30
2022-12-26T08:17:10.743Z,0.20
2022-12-26T08:19:43.586Z,0.50
2022-12-26T08:22:16.176Z,0.40
2022-12-26T08:24:48.786Z,0.43
2022-12-26T08:27:21.539Z,0.47
2022-12-26T08:29:54.260Z,0.40
2022-12-26T08:32:27.215Z,0.40
2022-12-26T08:35:00.770Z,0.30
2022-12-26T08:37:33.710Z,0.32
2022-12-26T08:40:07.100Z,0.40
2022-12-26T08:43:03.068Z,0.40
2022-12-26T08:45:32.639Z,0.47
2022-12-26T08:48:05.703Z,0.30
2022-12-26T08:50:41.103Z,0.32
2022-12-26T08:53:14.322Z,0.50
2022-12-26T08:55:46.791Z,0.65
2022-12-26T08:58:20.240Z,0.50
2022-12-26T09:00:55.434Z,0.40
2022-12-26T09:03:28.335Z,0.40
2022-12-26T09:06:05.943Z,0.47
2022-12-26T09:08:40.878Z,0.52
2022-12-26T09:11:27.561Z,0.52
2022-12-26T09:14:03.505Z,0.40
2022-12-26T09:16:49.572Z,0.40
2022-12-26T09:19:23.864Z,0.40
2022-12-26T09:22:15.208Z,0.40
2022-12-26T09:24:48.819Z,0.40
2022-12-26T09:27:23.662Z,0.40
2022-12-26T09:29:57.222Z,0.45
2022-12-26T09:32:34.622Z,0.40
2022-12-26T09:35:07.855Z,0.50
2022-12-26T09:37:41.551Z,0.40
2022-12-26T09:40:28.508Z,0.50
2022-12-26T09:43:48.248Z,0.40
2022-12-26T09:47:34.915Z,0.77
2022-12-26T09:50:43.593Z,0.40
2022-12-26T09:53:30.853Z,0.40
2022-12-26T09:56:23.677Z,0.45
2022-12-26T09:59:18.705Z,0.40
2022-12-26T10:01:52.547Z,0.40
2022-12-26T10:04:30.214Z,0.43
2022-12-26T10:07:28.557Z,0.30
2022-12-26T10:10:48.663Z,0.98
2022-12-26T10:13:44.564Z,0.93
2022-12-26T10:16:39.249Z,1.20
2022-12-26T10:23:06.701Z,0.90
2022-12-26T10:26:01.189Z,1.23
2022-12-26T10:28:47.094Z,0.75
2022-12-26T10:31:36.559Z,1.00
2022-12-26T10:34:38.099Z,0.80
2022-12-26T10:37:35.672Z,0.60
2022-12-26T10:40:24.933Z,0.80
2022-12-26T10:43:26.176Z,1.02
2022-12-26T10:46:40.081Z,0.65
2022-12-26T10:49:18.616Z,0.75
2022-12-26T10:51:56.508Z,0.77
2022-12-26T10:54:30.580Z,0.80
2022-12-26T10:59:47.258Z,0.50
2022-12-26T11:02:30.285Z,0.60
2022-12-26T11:05:27.289Z,1.02
2022-12-26T11:08:46.622Z,0.60
2022-12-26T11:11:53.603Z,0.77
2022-12-26T11:14:37.617Z,0.68
2022-12-26T11:17:34.352Z,0.70
2022-12-26T11:20:28.301Z,0.80
2022-12-26T11:23:22.578Z,0.70
2022-12-26T11:25:58.706Z,0.60
2022-12-26T11:28:36.142Z,0.60
2022-12-26T11:31:28.104Z,0.45
2022-12-26T11:34:01.749Z,0.60
2022-12-26T11:36:37.862Z,0.73
2022-12-26T11:39:33.811Z,0.45
2022-12-26T11:42:21.635Z,0.68
2022-12-26T11:44:59.063Z,0.70
2022-12-26T11:47:32.036Z,0.77
2022-12-26T11:50:11.516Z,0.52
2022-12-26T11:52:55.622Z,0.80
2022-12-26T11:55:39.377Z,0.60
2022-12-26T11:58:12.182Z,0.80
2022-12-26T12:01:06.065Z,0.65
2022-12-26T12:03:49.362Z,0.70
2022-12-26T12:06:53.443Z,0.68
2022-12-26T12:10:01.381Z,0.60
2022-12-26T12:13:11.422Z,0.57
2022-12-26T12:16:28.788Z,0.52
2022-12-26T12:19:24.404Z,0.70
2022-12-26T12:22:40.475Z,0.70
2022-12-26T12:25:25.414Z,0.88
2022-12-26T12:28:31.624Z,0.50
2022-12-26T12:31:32.574Z,0.50
2022-12-26T12:34:37.102Z,0.50
2022-12-26T12:37:57.610Z,0.70
2022-12-26T12:40:55.808Z,0.75
2022-12-26T12:44:05.144Z,0.50
2022-12-26T12:46:59.584Z,0.50
2022-12-26T12:49:58.648Z,0.52
2022-12-26T12:53:05.362Z,0.70
2022-12-26T12:55:46.063Z,0.55
2022-12-26T12:58:37.971Z,0.60
2022-12-26T13:01:29.636Z,0.52
2022-12-26T13:04:29.687Z,0.55
2022-12-26T13:07:16.320Z,0.70
2022-12-26T13:09:57.211Z,0.70
2022-12-26T13:12:39.908Z,0.70
2022-12-26T13:15:40.237Z,0.60
2022-12-26T13:18:23.269Z,0.60
2022-12-26T13:21:12.845Z,0.63
2022-12-26T13:24:14.078Z,0.75
2022-12-26T13:27:30.702Z,0.60
2022-12-26T13:30:15.174Z,0.50
2022-12-26T13:36:04.102Z,0.50
2022-12-26T13:38:58.180Z,0.60
2022-12-26T13:41:50.987Z,0.50
2022-12-26T13:44:27.254Z,0.60
2022-12-26T13:47:00.835Z,0.50
2022-12-26T13:49:39.985Z,0.70
2022-12-26T13:52:12.597Z,0.68
2022-12-26T13:54:48.037Z,0.50
2022-12-26T13:57:29.694Z,0.40
2022-12-26T14:00:25.804Z,0.63
2022-12-26T14:03:29.664Z,0.63
2022-12-26T14:06:40.409Z,0.52
2022-12-26T14:09:41.948Z,0.70
2022-12-26T14:12:38.635Z,0.65
2022-12-26T14:15:39.027Z,0.50
2022-12-26T14:18:50.731Z,0.80
2022-12-26T14:21:37.175Z,0.80
2022-12-26T14:24:12.668Z,0.70
2022-12-26T14:27:12.303Z,0.50
2022-12-26T14:30:06.463Z,0.70
2022-12-26T14:33:07.571Z,0.70
2022-12-26T14:36:14.231Z,0.60
2022-12-26T14:39:10.189Z,0.65
2022-12-26T14:42:42.292Z,0.60
2022-12-26T14:45:29.835Z,0.70
2022-12-26T14:48:17.569Z,0.88
2022-12-26T14:50:52.576Z,0.52
2022-12-26T14:53:27.424Z,0.50
2022-12-26T14:56:10.459Z,0.60
2022-12-26T14:58:51.672Z,0.60
2022-12-26T15:01:27.142Z,0.50
2022-12-26T15:04:09.716Z,0.70
2022-12-26T15:07:25.506Z,0.60
2022-12-26T15:10:42.546Z,0.68
2022-12-26T15:14:07.645Z,0.50
2022-12-26T15:17:07.430Z,0.65
2022-12-26T15:20:37.982Z,0.75
2022-12-26T15:24:02.596Z,0.60
2022-12-26T15:27:04.466Z,0.50
2022-12-26T15:30:11.708Z,0.50
2022-12-26T15:32:51.248Z,0.50
2022-12-26T15:36:03.534Z,0.40
2022-12-26T15:39:34.020Z,0.70
2022-12-26T15:42:12.339Z,0.52
2022-12-26T15:45:06.745Z,0.50
2022-12-26T15:47:57.424Z,0.57
2022-12-26T15:51:00.779Z,0.60
2022-12-26T15:54:31.695Z,0.60
2022-12-26T15:57:23.478Z,0.40
2022-12-26T16:00:18.164Z,0.70
2022-12-26T16:03:14.210Z,0.40
2022-12-26T16:06:07.657Z,0.55
2022-12-26T16:09:03.716Z,0.40
2022-12-26T16:11:53.231Z,0.60
2022-12-26T16:14:37.865Z,0.68
2022-12-26T16:17:13.534Z,0.60
2022-12-26T16:19:50.265Z,0.80
2022-12-26T16:22:48.630Z,0.70
2022-12-26T16:25:26.304Z,0.90
2022-12-26T16:28:00.870Z,0.93
2022-12-26T16:30:38.394Z,0.70
2022-12-26T16:33:14.956Z,0.50
2022-12-26T16:35:47.748Z,0.65
2022-12-26T16:38:29.017Z,0.70
2022-12-26T16:41:17.783Z,0.70
2022-12-26T16:43:54.364Z,0.70
2022-12-26T16:46:30.918Z,0.80
2022-12-26T16:49:03.595Z,0.65
2022-12-26T16:51:47.630Z,0.80
2022-12-26T16:54:20.327Z,0.75
2022-12-26T16:57:19.892Z,0.57
2022-12-26T16:59:59.174Z,0.80
2022-12-26T17:02:35.705Z,0.70
2022-12-26T17:05:43.814Z,0.80
2022-12-26T17:08:16.440Z,0.70
2022-12-26T17:10:50.903Z,0.88
2022-12-26T17:13:26.638Z,0.77
2022-12-26T17:16:10.813Z,0.90
2022-12-26T17:19:21.272Z,0.68
2022-12-26T17:22:17.367Z,0.73
2022-12-26T17:24:52.045Z,0.90
2022-12-26T17:27:26.699Z,0.90
2022-12-26T17:30:28.050Z,0.70
2022-12-26T17:33:23.842Z,1.10
2022-12-26T17:39:25.483Z,0.90
2022-12-26T17:42:01.851Z,0.90
2022-12-26T17:44:44.253Z,1.00
2022-12-26T17:47:30.567Z,0.93
2022-12-26T17:50:03.464Z,0.80
2022-12-26T17:52:37.448Z,1.15
2022-12-26T17:55:18.192Z,0.95
2022-12-26T17:57:51.288Z,1.10
2022-12-26T18:00:28.867Z,1.15
2022-12-26T18:03:01.513Z,0.95
2022-12-26T18:05:36.066Z,0.90
2022-12-26T18:08:32.897Z,1.45
2022-12-26T18:11:10.711Z,0.90
2022-12-26T18:13:44.293Z,1.30
2022-12-26T18:16:20.426Z,1.20
2022-12-26T18:18:53.030Z,1.38
2022-12-26T18:21:25.718Z,1.50
2022-12-26T18:23:58.268Z,1.20
2022-12-26T18:26:31.542Z,1.50
2022-12-26T18:29:04.134Z,1.23
2022-12-26T18:31:37.172Z,1.30
2022-12-26T18:34:09.779Z,1.38
2022-12-26T18:36:43.106Z,1.75
2022-12-26T18:39:17.038Z,1.20
2022-12-26T18:41:49.712Z,1.30
2022-12-26T18:44:22.343Z,1.40
2022-12-26T18:46:54.903Z,1.35
2022-12-26T18:49:28.124Z,1.27
2022-12-26T18:52:00.708Z,1.50
2022-12-26T18:54:33.393Z,1.27
2022-12-26T18:57:10.728Z,1.20
2022-12-26T18:59:43.403Z,1.70
2022-12-26T19:02:18.904Z,1.50
2022-12-26T19:04:51.573Z,1.35
2022-12-26T19:07:24.159Z,1.20
2022-12-26T19:09:59.439Z,1.40
2022-12-26T19:12:31.972Z,1.30
2022-12-26T19:15:04.824Z,1.83
2022-12-26T19:17:38.433Z,1.50
2022-12-26T19:20:24.869Z,1.30
2022-12-26T19:22:57.705Z,1.20
2022-12-26T19:25:30.380Z,1.10
2022-12-26T19:28:03.225Z,1.40
2022-12-26T19:30:39.032Z,1.40
2022-12-26T19:33:11.903Z,1.10
2022-12-26T19:35:44.585Z,1.00
2022-12-26T19:38:17.161Z,1.55
2022-12-26T19:40:49.704Z,1.30
2022-12-26T19:43:22.247Z,1.20
2022-12-26T19:46:07.751Z,1.27
2022-12-26T19:48:41.159Z,1.70
2022-12-26T19:51:16.304Z,1.30
2022-12-26T19:53:49.838Z,1.23
2022-12-26T19:56:28.323Z,1.70
2022-12-26T19:59:01.407Z,1.17
2022-12-26T20:01:34.252Z,1.35
2022-12-26T20:04:09.949Z,1.70
2022-12-26T20:06:42.549Z,1.00
2022-12-26T20:09:17.520Z,1.55
2022-12-26T20:11:50.157Z,1.17
2022-12-26T20:14:26.896Z,1.20
2022-12-26T20:17:12.305Z,1.60
2022-12-26T20:19:47.516Z,1.08
2022-12-26T20:22:20.477Z,1.60
2022-12-26T20:24:53.163Z,1.17
2022-12-26T20:27:26.157Z,1.10
2022-12-26T20:29:58.695Z,1.27
2022-12-26T20:32:31.204Z,1.60
2022-12-26T20:35:04.112Z,1.40
2022-12-26T20:37:36.742Z,1.20
2022-12-26T20:40:10.222Z,1.20
2022-12-26T20:42:42.773Z,1.10
2022-12-26T20:45:15.481Z,1.27
2022-12-26T20:47:47.991Z,1.20
2022-12-26T20:50:22.800Z,1.25
2022-12-26T20:52:55.318Z,1.17
2022-12-26T20:55:27.866Z,1.27
2022-12-26T20:58:00.517Z,1.45
2022-12-26T21:00:34.317Z,1.35
2022-12-26T21:03:06.959Z,1.20
2022-12-26T21:05:39.853Z,1.40
2022-12-26T21:08:12.444Z,1.50
2022-12-26T21:10:45.066Z,1.35
2022-12-26T21:13:17.639Z,1.48
2022-12-26T21:15:51.299Z,1.30
2022-12-26T21:18:23.925Z,1.23
2022-12-26T21:20:56.464Z,1.10
2022-12-26T21:23:28.999Z,1.50
2022-12-26T21:26:01.553Z,1.15
2022-12-26T21:28:35.412Z,1.45
2022-12-26T21:31:10.860Z,1.40
2022-12-26T21:33:44.895Z,1.58
2022-12-26T21:38:50.599Z,1.33
2022-12-26T21:41:24.652Z,1.35
2022-12-26T21:43:57.351Z,1.27
2022-12-26T21:46:30.039Z,1.58
2022-12-26T21:49:02.581Z,1.30
2022-12-26T21:51:35.160Z,1.27
2022-12-26T21:54:26.270Z,1.30
2022-12-26T21:56:58.811Z,1.40
2022-12-26T21:59:50.254Z,1.42
2022-12-26T22:02:49.401Z,1.50
2022-12-26T22:05:26.344Z,1.20
2022-12-26T22:08:01.861Z,1.23
2022-12-26T22:10:55.651Z,1.20
2022-12-26T22:13:29.279Z,1.40
2022-12-26T22:16:09.293Z,1.30
2022-12-26T22:18:48.425Z,1.60
2022-12-26T22:21:23.893Z,1.58
2022-12-26T22:24:03.272Z,1.38
2022-12-26T22:26:35.779Z,1.33
2022-12-26T22:29:08.701Z,1.50
2022-12-26T22:31:41.378Z,1.40
2022-12-26T22:34:16.851Z,1.70
2022-12-26T22:36:49.425Z,1.58
2022-12-26T22:39:22.058Z,1.30
2022-12-26T22:41:58.944Z,1.42
2022-12-26T22:44:34.863Z,1.35
2022-12-26T22:47:07.397Z,1.60
2022-12-26T22:49:40.205Z,1.20
2022-12-26T22:52:16.045Z,1.92
2022-12-26T22:54:48.942Z,1.38
2022-12-26T22:57:22.618Z,1.70
2022-12-26T23:00:11.612Z,1.52
2022-12-26T23:02:44.555Z,1.50
2022-12-26T23:05:17.863Z,1.40
2022-12-26T23:07:50.975Z,1.65
2022-12-26T23:10:24.905Z,1.60
2022-12-26T23:12:58.344Z,1.67
2022-12-26T23:15:32.303Z,1.45
2022-12-26T23:18:45.131Z,1.63
2022-12-26T23:21:39.641Z,1.50
2022-12-26T23:24:23.555Z,1.60
2022-12-26T23:27:25.822Z,1.35
2022-12-26T23:30:16.775Z,1.65
2022-12-26T23:32:53.270Z,1.50
2022-12-26T23:35:27.304Z,1.70
2022-12-26T23:37:59.833Z,1.27
2022-12-26T23:40:32.406Z,1.50
2022-12-26T23:43:05.104Z,1.42
2022-12-26T23:45:43.678Z,1.30
2022-12-26T23:48:16.376Z,1.73
2022-12-26T23:50:49.686Z,1.50
2022-12-26T23:53:22.181Z,1.50
2022-12-26T23:55:54.862Z,1.60
2022-12-26T23:58:27.695Z,1.52
